PWSweather.com
Personal Weather Stations
Station Observations
270882
Flassian, LimouxFR 11300

FlassianLimouxFR 11300

Lat: 43.071798, Lon: 2.217292

Elevation: 165

Station Type: Oregon WMR 200

http://www.meteolimoux.fr

Latest ConditionsUpdated 6:22:11 AM GMT+01:01 Thursday, Jun 27, 2019
Currently Today's Max Today's Min Today's Average
Temperature 63.5°F17.5°C 73.9°F23.3°C 62.4°F16.9°C 65.8°F18.8°C
Dew Point 58.3°F14.6°C 58.5°F14.7°C 55.9°F13.3°C 57.2°F14.0°C
Winds 0.2 mph SSW0.3 kmh SSW 1.3 mph -2.1 kmh - - 0.1 mph 0.2 kmh
Wind Gusts 3.6 mph5.8 kmh 5.1 mph8.2 kmh - -
Humidity 83% 85% 56% 74%
Pressure 30.13 in1020.3 mb 30.13 in1020.3 mb 30.10 in1019.3 mb -
Hour Temp Dew Point Humidity Winds Wind Gusts Pressure Precip Precip Rate Daily Precip Total
06:22 AM 63.5°F17.5°C 58.3°F14.6°C 83% 0.2 mph SSW0.3 kmh SSW 3.6 mph5.8 kmh 30.13 in1020.3 mb - 0.00 in0.0 mm 0.00 in0.0 mm
06:17 AM 63.3°F17.4°C 58.5°F14.7°C 84% 0.7 mph SW1.1 kmh SW 4.5 mph7.2 kmh 30.13 in1020.3 mb - 0.00 in0.0 mm 0.00 in0.0 mm
06:12 AM 63.1°F17.3°C 58.3°F14.6°C 84% Calm Calm -- 30.13 in1020.3 mb - 0.00 in0.0 mm 0.00 in0.0 mm
06:07 AM 63.0°F17.2°C 58.5°F14.7°C 85% Calm Calm -- 30.10 in1019.3 mb - 0.00 in0.0 mm 0.00 in0.0 mm
06:02 AM 62.6°F17.0°C 57.7°F14.3°C 84% Calm Calm -- 30.10 in1019.3 mb - 0.00 in0.0 mm 0.00 in0.0 mm
05:57 AM 62.6°F17.0°C 57.7°F14.3°C 84% Calm Calm -- 30.10 in1019.3 mb - 0.00 in0.0 mm 0.00 in0.0 mm
05:52 AM 62.6°F17.0°C 57.7°F14.3°C 84% Calm Calm -- 30.10 in1019.3 mb - 0.00 in0.0 mm 0.00 in0.0 mm
05:47 AM 62.4°F16.9°C 57.6°F14.2°C 84% 0.2 mph SSW0.3 kmh SSW 2.2 mph3.5 kmh 30.10 in1019.3 mb - 0.00 in0.0 mm 0.00 in0.0 mm
05:42 AM 62.6°F17.0°C 57.7°F14.3°C 84% Calm Calm 1.6 mph2.6 kmh 30.10 in1019.3 mb - 0.00 in0.0 mm 0.00 in0.0 mm
05:37 AM 62.6°F17.0°C 57.4°F14.1°C 83% 0.7 mph SW1.1 kmh SW 4.7 mph7.6 kmh 30.10 in1019.3 mb - 0.00 in0.0 mm 0.00 in0.0 mm
05:32 AM 62.6°F17.0°C 57.7°F14.3°C 84% Calm Calm -- 30.10 in1019.3 mb - 0.00 in0.0 mm 0.00 in0.0 mm
05:27 AM 62.4°F16.9°C 57.9°F14.4°C 85% Calm Calm -- 30.10 in1019.3 mb - 0.00 in0.0 mm 0.00 in0.0 mm
05:22 AM 62.4°F16.9°C 57.2°F14.0°C 83% Calm Calm -- 30.10 in1019.3 mb - 0.00 in0.0 mm 0.00 in0.0 mm
05:17 AM 62.6°F17.0°C 57.4°F14.1°C 83% Calm Calm -- 30.10 in1019.3 mb - 0.00 in0.0 mm 0.00 in0.0 mm
05:12 AM 62.8°F17.1°C 57.6°F14.2°C 83% Calm Calm -- 30.10 in1019.3 mb - 0.00 in0.0 mm 0.00 in0.0 mm
05:07 AM 62.8°F17.1°C 57.6°F14.2°C 83% Calm Calm -- 30.10 in1019.3 mb - 0.00 in0.0 mm 0.00 in0.0 mm
05:02 AM 63.0°F17.2°C 57.4°F14.1°C 82% Calm Calm -- 30.10 in1019.3 mb - 0.00 in0.0 mm 0.00 in0.0 mm
04:57 AM 63.0°F17.2°C 57.4°F14.1°C 82% Calm Calm -- 30.10 in1019.3 mb - 0.00 in0.0 mm 0.00 in0.0 mm
04:52 AM 63.1°F17.3°C 57.6°F14.2°C 82% 1.3 mph SW2.1 kmh SW 5.1 mph8.2 kmh 30.10 in1019.3 mb - 0.00 in0.0 mm 0.00 in0.0 mm
04:47 AM 63.1°F17.3°C 57.9°F14.4°C 83% 0.2 mph SW0.3 kmh SW 2.7 mph4.3 kmh 30.10 in1019.3 mb - 0.00 in0.0 mm 0.00 in0.0 mm
04:42 AM 63.1°F17.3°C 57.6°F14.2°C 82% 0.2 mph SW0.3 kmh SW 3.6 mph5.8 kmh 30.10 in1019.3 mb - 0.00 in0.0 mm 0.00 in0.0 mm
04:37 AM 63.1°F17.3°C 57.6°F14.2°C 82% Calm Calm -- 30.10 in1019.3 mb - 0.00 in0.0 mm 0.00 in0.0 mm
04:32 AM 63.3°F17.4°C 57.7°F14.3°C 82% Calm Calm -- 30.10 in1019.3 mb - 0.00 in0.0 mm 0.00 in0.0 mm
04:27 AM 63.3°F17.4°C 57.4°F14.1°C 81% Calm Calm -- 30.10 in1019.3 mb - 0.00 in0.0 mm 0.00 in0.0 mm
04:22 AM 63.3°F17.4°C 57.4°F14.1°C 81% Calm Calm -- 30.10 in1019.3 mb - 0.00 in0.0 mm 0.00 in0.0 mm
04:17 AM 63.5°F17.5°C 57.6°F14.2°C 81% 0.2 mph SW0.3 kmh SW 2.5 mph4.0 kmh 30.10 in1019.3 mb - 0.00 in0.0 mm 0.00 in0.0 mm
04:12 AM 63.5°F17.5°C 57.6°F14.2°C 81% Calm Calm -- 30.10 in1019.3 mb - 0.00 in0.0 mm 0.00 in0.0 mm
04:07 AM 63.5°F17.5°C 57.2°F14.0°C 80% Calm Calm -- 30.10 in1019.3 mb - 0.00 in0.0 mm 0.00 in0.0 mm
04:02 AM 63.7°F17.6°C 57.4°F14.1°C 80% Calm Calm -- 30.10 in1019.3 mb - 0.00 in0.0 mm 0.00 in0.0 mm
03:57 AM 63.9°F17.7°C 57.6°F14.2°C 80% 0.4 mph SW0.6 kmh SW 2.7 mph4.3 kmh 30.10 in1019.3 mb - 0.00 in0.0 mm 0.00 in0.0 mm
03:52 AM 63.9°F17.7°C 57.6°F14.2°C 80% Calm Calm -- 30.10 in1019.3 mb - 0.00 in0.0 mm 0.00 in0.0 mm
03:47 AM 64.0°F17.8°C 57.7°F14.3°C 80% Calm Calm -- 30.10 in1019.3 mb - 0.00 in0.0 mm 0.00 in0.0 mm
03:42 AM 64.2°F17.9°C 57.6°F14.2°C 79% Calm Calm -- 30.10 in1019.3 mb - 0.00 in0.0 mm 0.00 in0.0 mm
03:37 AM 64.2°F17.9°C 57.6°F14.2°C 79% Calm Calm -- 30.10 in1019.3 mb - 0.00 in0.0 mm 0.00 in0.0 mm
03:32 AM 64.4°F18.0°C 57.4°F14.1°C 78% 0.2 mph SW0.3 kmh SW 2.2 mph3.5 kmh 30.10 in1019.3 mb - 0.00 in0.0 mm 0.00 in0.0 mm
03:27 AM 64.4°F18.0°C 57.4°F14.1°C 78% Calm Calm -- 30.10 in1019.3 mb - 0.00 in0.0 mm 0.00 in0.0 mm
03:22 AM 64.6°F18.1°C 57.6°F14.2°C 78% Calm Calm -- 30.10 in1019.3 mb - 0.00 in0.0 mm 0.00 in0.0 mm
03:17 AM 64.6°F18.1°C 56.8°F13.8°C 76% Calm Calm -- 30.10 in1019.3 mb - 0.00 in0.0 mm 0.00 in0.0 mm
03:12 AM 64.6°F18.1°C 57.2°F14.0°C 77% Calm Calm -- 30.10 in1019.3 mb - 0.00 in0.0 mm 0.00 in0.0 mm
03:07 AM 64.6°F18.1°C 56.8°F13.8°C 76% Calm Calm -- 30.10 in1019.3 mb - 0.00 in0.0 mm 0.00 in0.0 mm
03:02 AM 64.8°F18.2°C 57.0°F13.9°C 76% Calm Calm -- 30.10 in1019.3 mb - 0.00 in0.0 mm 0.00 in0.0 mm
02:57 AM 64.9°F18.3°C 56.8°F13.8°C 75% Calm Calm -- 30.10 in1019.3 mb - 0.00 in0.0 mm 0.00 in0.0 mm
02:52 AM 65.1°F18.4°C 56.7°F13.7°C 74% Calm Calm -- 30.10 in1019.3 mb - 0.00 in0.0 mm 0.00 in0.0 mm
02:47 AM 65.3°F18.5°C 56.5°F13.6°C 73% Calm Calm -- 30.10 in1019.3 mb - 0.00 in0.0 mm 0.00 in0.0 mm
02:42 AM 65.7°F18.7°C 56.8°F13.8°C 73% Calm Calm -- 30.10 in1019.3 mb - 0.00 in0.0 mm 0.00 in0.0 mm
02:37 AM 65.8°F18.8°C 57.0°F13.9°C 73% Calm Calm -- 30.10 in1019.3 mb - 0.00 in0.0 mm 0.00 in0.0 mm
02:32 AM 65.8°F18.8°C 56.5°F13.6°C 72% Calm Calm -- 30.10 in1019.3 mb - 0.00 in0.0 mm 0.00 in0.0 mm
02:27 AM 66.0°F18.9°C 56.7°F13.7°C 72% Calm Calm -- 30.10 in1019.3 mb - 0.00 in0.0 mm 0.00 in0.0 mm
02:22 AM 66.2°F19.0°C 56.8°F13.8°C 72% Calm Calm -- 30.10 in1019.3 mb - 0.00 in0.0 mm 0.00 in0.0 mm
02:17 AM 66.2°F19.0°C 56.5°F13.6°C 71% Calm Calm -- 30.10 in1019.3 mb - 0.00 in0.0 mm 0.00 in0.0 mm
02:12 AM 66.4°F19.1°C 56.7°F13.7°C 71% Calm Calm -- 30.10 in1019.3 mb - 0.00 in0.0 mm 0.00 in0.0 mm
02:07 AM 66.6°F19.2°C 56.8°F13.8°C 71% Calm Calm -- 30.10 in1019.3 mb - 0.00 in0.0 mm 0.00 in0.0 mm
02:02 AM 66.7°F19.3°C 56.7°F13.7°C 70% Calm Calm -- 30.10 in1019.3 mb - 0.00 in0.0 mm 0.00 in0.0 mm
01:57 AM 66.9°F19.4°C 56.8°F13.8°C 70% Calm Calm -- 30.10 in1019.3 mb - 0.00 in0.0 mm 0.00 in0.0 mm
01:52 AM 67.1°F19.5°C 56.7°F13.7°C 69% Calm Calm 1.3 mph2.1 kmh 30.10 in1019.3 mb - 0.00 in0.0 mm 0.00 in0.0 mm
01:47 AM 67.3°F19.6°C 57.2°F14.0°C 70% Calm Calm -- 30.10 in1019.3 mb - 0.00 in0.0 mm 0.00 in0.0 mm
01:42 AM 67.5°F19.7°C 56.5°F13.6°C 68% Calm Calm -- 30.10 in1019.3 mb - 0.00 in0.0 mm 0.00 in0.0 mm
01:37 AM 67.6°F19.8°C 56.3°F13.5°C 67% Calm Calm -- 30.13 in1020.3 mb - 0.00 in0.0 mm 0.00 in0.0 mm
01:32 AM 67.8°F19.9°C 56.8°F13.8°C 68% Calm Calm -- 30.13 in1020.3 mb - 0.00 in0.0 mm 0.00 in0.0 mm
01:27 AM 68.0°F20.0°C 56.3°F13.5°C 66% Calm Calm -- 30.13 in1020.3 mb - 0.00 in0.0 mm 0.00 in0.0 mm
01:22 AM 68.2°F20.1°C 56.8°F13.8°C 67% Calm Calm -- 30.10 in1019.3 mb - 0.00 in0.0 mm 0.00 in0.0 mm
01:17 AM 68.4°F20.2°C 56.5°F13.6°C 66% Calm Calm -- 30.10 in1019.3 mb - 0.00 in0.0 mm 0.00 in0.0 mm
01:12 AM 68.5°F20.3°C 55.9°F13.3°C 64% 0.2 mph S0.3 kmh S 2.0 mph3.2 kmh 30.10 in1019.3 mb - 0.00 in0.0 mm 0.00 in0.0 mm
01:07 AM 69.1°F20.6°C 56.5°F13.6°C 64% Calm Calm -- 30.13 in1020.3 mb - 0.00 in0.0 mm 0.00 in0.0 mm
01:02 AM 69.3°F20.7°C 56.5°F13.6°C 64% 0.4 mph S0.6 kmh S 2.5 mph4.0 kmh 30.13 in1020.3 mb - 0.00 in0.0 mm 0.00 in0.0 mm
12:57 AM 69.4°F20.8°C 56.3°F13.5°C 63% Calm Calm -- 30.13 in1020.3 mb - 0.00 in0.0 mm 0.00 in0.0 mm
12:52 AM 69.8°F21.0°C 56.7°F13.7°C 63% Calm Calm -- 30.10 in1019.3 mb - 0.00 in0.0 mm 0.00 in0.0 mm
12:47 AM 70.2°F21.2°C 57.0°F13.9°C 63% Calm Calm -- 30.10 in1019.3 mb - 0.00 in0.0 mm 0.00 in0.0 mm
12:42 AM 70.3°F21.3°C 56.7°F13.7°C 62% Calm Calm -- 30.10 in1019.3 mb - 0.00 in0.0 mm 0.00 in0.0 mm
12:37 AM 70.7°F21.5°C 56.7°F13.7°C 61% Calm Calm -- 30.13 in1020.3 mb - 0.00 in0.0 mm 0.00 in0.0 mm
12:32 AM 71.1°F21.7°C 56.5°F13.6°C 60% Calm Calm -- 30.13 in1020.3 mb - 0.00 in0.0 mm 0.00 in0.0 mm
12:27 AM 71.6°F22.0°C 56.5°F13.6°C 59% Calm Calm -- 30.13 in1020.3 mb - 0.00 in0.0 mm 0.00 in0.0 mm
12:22 AM 72.0°F22.2°C 56.8°F13.8°C 59% Calm Calm -- 30.13 in1020.3 mb - 0.00 in0.0 mm 0.00 in0.0 mm
12:17 AM 72.5°F22.5°C 56.8°F13.8°C 58% Calm Calm -- 30.13 in1020.3 mb - 0.00 in0.0 mm 0.00 in0.0 mm
12:12 AM 73.0°F22.8°C 56.8°F13.8°C 57% Calm Calm -- 30.13 in1020.3 mb - 0.00 in0.0 mm 0.00 in0.0 mm
12:07 AM 73.6°F23.1°C 56.8°F13.8°C 56% Calm Calm -- 30.13 in1020.3 mb - 0.00 in0.0 mm 0.00 in0.0 mm
12:02 AM 73.9°F23.3°C 57.2°F14.0°C 56% Calm Calm -- 30.13 in1020.3 mb - 0.00 in0.0 mm 0.00 in0.0 mm